Time;durP1;ratioP1;P1;durP2;ratioP2;P2;SDS_P1;SDS_P2;PMS_P1;PMS_P2;Temp;Humidity;BMP_temperature;BMP_pressure;BME280_temperature;BME280_humidity;BME280_pressure;Samples;Min_cycle;Max_cycle;Signal;HPM_P1;HPM_P2
2022/12/01 08:22:32;;;;;;;3.23;2.23;;;;;;;-0.85;100.00;100858.30;1730722;82;21048;-71
2022/12/01 08:25:00;;;;;;;2.43;1.80;;;;;;;-0.76;100.00;100846.36;1730946;82;21039;-70
2022/12/01 08:27:27;;;;;;;11.53;4.20;;;;;;;-0.71;100.00;100858.05;1733739;81;20989;-72
2022/12/01 08:29:56;;;;;;;9.73;4.00;;;;;;;-0.65;100.00;100856.42;1760113;81;21650;-73
2022/12/01 08:32:23;;;;;;;11.67;3.40;;;;;;;-0.56;100.00;100852.44;1737951;81;21028;-72
2022/12/01 08:34:53;;;;;;;8.67;2.87;;;;;;;-0.50;100.00;100859.59;1732211;82;21141;-72
2022/12/01 08:37:20;;;;;;;2.50;2.03;;;;;;;-0.42;100.00;100855.23;1739991;81;21004;-71
2022/12/01 08:39:47;;;;;;;2.17;1.97;;;;;;;-0.36;100.00;100860.68;1721356;81;21051;-73
2022/12/01 08:42:16;;;;;;;4.40;2.23;;;;;;;-0.31;100.00;100862.62;1748449;81;21055;-74
2022/12/01 08:44:44;;;;;;;4.67;2.20;;;;;;;-0.25;100.00;100877.79;1724996;81;21040;-72
2022/12/01 08:47:12;;;;;;;9.23;2.37;;;;;;;-0.19;100.00;100868.63;1732762;82;21019;-71
2022/12/01 08:49:40;;;;;;;6.03;2.60;;;;;;;-0.15;100.00;100871.50;1745915;82;21059;-70
2022/12/01 08:52:07;;;;;;;5.17;2.80;;;;;;;-0.09;100.00;100868.53;1732082;82;21092;-72
2022/12/01 08:54:35;;;;;;;6.37;2.90;;;;;;;0.01;100.00;100872.02;1733620;82;20957;-73
2022/12/01 08:57:04;;;;;;;6.87;2.97;;;;;;;0.06;100.00;100864.65;1736851;81;21008;-74
2022/12/01 08:59:32;;;;;;;6.40;3.43;;;;;;;0.12;100.00;100869.13;1735205;82;21056;-72
2022/12/01 09:01:59;;;;;;;11.57;4.13;;;;;;;0.21;100.00;100860.28;1742809;82;21055;-73
2022/12/01 09:04:28;;;;;;;10.97;3.20;;;;;;;0.31;100.00;100861.02;1693415;82;20993;-72
2022/12/01 09:06:56;;;;;;;7.50;2.47;;;;;;;0.43;100.00;100855.97;1737027;82;20996;-71
2022/12/01 09:09:27;;;;;;;7.70;2.40;;;;;;;0.48;100.00;100852.55;1716401;82;21067;-73
2022/12/01 09:12:00;;;;;;;7.73;2.43;;;;;;;0.52;100.00;100852.30;1710598;83;21019;-73
2022/12/01 09:14:46;;;;;;;9.07;3.07;;;;;;;0.51;100.00;100850.60;1744000;82;21059;-74
2022/12/01 09:17:12;;;;;;;5.93;2.43;;;;;;;0.54;100.00;100864.19;1743921;82;21043;-73
2022/12/01 09:19:39;;;;;;;3.87;2.40;;;;;;;0.56;100.00;100858.30;1725011;82;21089;-70
2022/12/01 09:22:07;;;;;;;7.00;3.00;;;;;;;0.59;100.00;100853.30;1731629;82;21067;-71
2022/12/01 09:24:35;;;;;;;29.87;8.37;;;;;;;0.67;100.00;100843.05;1723712;81;21024;-70
2022/12/01 09:27:02;;;;;;;14.17;5.00;;;;;;;0.72;100.00;100845.83;1724600;82;21566;-72
2022/12/01 09:29:30;;;;;;;5.83;3.10;;;;;;;0.77;100.00;100852.72;1714391;82;21078;-69
2022/12/01 09:31:58;;;;;;;14.00;3.50;;;;;;;0.81;100.00;100853.77;1757269;80;21051;-70
2022/12/01 09:34:25;;;;;;;13.13;3.50;;;;;;;0.86;100.00;100845.04;1774880;80;21076;-69
2022/12/01 09:36:56;;;;;;;9.10;2.90;;;;;;;0.92;100.00;100839.38;1758154;80;21532;-72
2022/12/01 09:39:23;;;;;;;34.43;9.30;;;;;;;0.96;100.00;100844.05;1727022;81;21024;-70
2022/12/01 09:42:07;;;;;;;34.03;10.80;;;;;;;1.02;100.00;100854.33;1671325;84;21003;-70
2022/12/01 09:44:46;;;;;;;13.13;4.20;;;;;;;1.06;100.00;100853.22;1672569;80;21103;-72
2022/12/01 09:47:24;;;;;;;8.93;3.30;;;;;;;1.10;100.00;100853.41;1749245;81;21055;-70
2022/12/01 09:50:04;;;;;;;3.50;2.60;;;;;;;1.16;100.00;100852.19;1736074;82;21040;-69
2022/12/01 09:52:52;;;;;;;12.00;3.40;;;;;;;1.20;100.00;100854.20;1739163;82;21020;-69
2022/12/01 09:55:21;;;;;;;5.97;2.93;;;;;;;1.29;100.00;100857.64;1706761;82;21064;-69
2022/12/01 09:57:53;;;;;;;7.63;2.90;;;;;;;1.46;100.00;100846.83;1717489;83;21032;-68
2022/12/01 10:00:27;;;;;;;5.47;2.72;;;;;;;1.56;100.00;100858.25;1724638;82;21548;-70
2022/12/01 10:03:22;;;;;;;6.13;3.00;;;;;;;1.62;100.00;100874.74;1734453;81;21047;-70
2022/12/01 10:05:58;;;;;;;7.60;3.07;;;;;;;1.63;100.00;100872.47;1735962;82;20993;-71
2022/12/01 10:08:29;;;;;;;7.37;3.13;;;;;;;1.65;100.00;100872.38;1687849;83;21090;-70
2022/12/01 10:11:02;;;;;;;12.03;3.63;;;;;;;1.69;100.00;100872.57;1718962;81;21138;-70
2022/12/01 10:13:31;;;;;;;7.03;3.15;;;;;;;1.77;100.00;100880.09;1709594;82;21040;-71
2022/12/01 10:16:12;;;;;;;10.10;4.07;;;;;;;1.83;100.00;100881.91;1730051;82;21037;-71
2022/12/01 10:19:24;;;;;;;9.30;4.10;;;;;;;1.90;100.00;100874.39;1737782;82;21043;-70
2022/12/01 10:22:09;;;;;;;7.10;2.93;;;;;;;2.00;100.00;100866.21;1728787;81;21108;-72
2022/12/01 10:24:54;;;;;;;7.23;3.07;;;;;;;2.15;100.00;100871.05;1689880;82;21553;-71
2022/12/01 10:27:41;;;;;;;7.07;2.60;;;;;;;2.20;100.00;100871.62;1717790;82;21554;-72
2022/12/01 10:30:18;;;;;;;15.00;3.23;;;;;;;2.26;100.00;100874.37;1687414;82;21031;-70
2022/12/01 10:33:12;;;;;;;12.40;3.30;;;;;;;2.26;100.00;100880.55;1717970;82;21031;-70
2022/12/01 10:35:47;;;;;;;;;;;;;;;2.23;100.00;100894.12;1724641;82;20996;-71
2022/12/01 10:38:28;;;;;;;9.03;2.90;;;;;;;2.20;100.00;100895.63;1719532;82;20125;-70
2022/12/01 10:41:05;;;;;;;9.50;3.00;;;;;;;2.20;100.00;100896.97;1713646;82;21077;-70
2022/12/01 10:43:46;;;;;;;20.97;6.17;;;;;;;2.21;100.00;100897.36;1723847;82;21051;-71
2022/12/01 10:46:51;;;;;;;10.23;3.60;;;;;;;2.22;100.00;100899.06;1715865;82;21031;-70
2022/12/01 10:49:19;;;;;;;9.13;3.20;;;;;;;2.19;100.00;100893.06;1716001;81;21027;-68
2022/12/01 10:51:55;;;;;;;6.53;3.27;;;;;;;2.17;100.00;100894.97;1706660;82;21030;-70
2022/12/01 10:54:25;;;;;;;8.00;3.60;;;;;;;2.13;100.00;100900.98;1713149;82;21059;-70
2022/12/01 10:56:55;;;;;;;5.53;2.80;;;;;;;2.08;100.00;100912.41;1696838;82;21074;-68
2022/12/01 10:59:39;;;;;;;12.77;3.73;;;;;;;2.00;100.00;100908.89;1706166;82;21544;-69
2022/12/01 11:02:16;;;;;;;14.03;3.97;;;;;;;1.95;100.00;100903.43;1723927;81;21029;-70
2022/12/01 11:04:59;;;;;;;20.57;6.67;;;;;;;1.92;100.00;100896.98;1704288;82;20973;-69
2022/12/01 11:07:46;;;;;;;14.47;4.90;;;;;;;1.88;100.00;100898.98;1707387;82;21029;-68
2022/12/01 11:10:33;;;;;;;8.67;3.73;;;;;;;1.84;100.00;100886.30;1717770;82;21538;-68
2022/12/01 11:13:27;;;;;;;7.33;2.83;;;;;;;1.82;100.00;100879.34;1703168;82;20984;-68
2022/12/01 11:15:57;;;;;;;6.87;2.63;;;;;;;1.82;100.00;100866.00;1725886;82;21000;-67
2022/12/01 11:18:39;;;;;;;6.40;2.50;;;;;;;1.84;100.00;100857.42;1710950;81;21035;-69
2022/12/01 11:21:26;;;;;;;4.87;2.27;;;;;;;1.86;100.00;100859.52;1720342;82;21056;-70
2022/12/01 11:23:55;;;;;;;7.70;3.23;;;;;;;1.86;100.00;100855.52;1728396;82;21031;-70
2022/12/01 11:26:30;;;;;;;8.57;3.97;;;;;;;1.88;100.00;100843.81;1697900;83;21057;-69
2022/12/01 11:29:03;;;;;;;13.17;5.00;;;;;;;1.94;100.00;100815.05;1691628;84;21031;-68
2022/12/01 11:31:42;;;;;;;9.57;4.23;;;;;;;2.02;100.00;100816.28;1684411;83;21073;-68
2022/12/01 11:34:30;;;;;;;20.57;7.97;;;;;;;2.16;100.00;100804.73;1666931;85;21073;-68
2022/12/01 11:37:00;;;;;;;10.00;4.00;;;;;;;2.41;100.00;100791.14;1721116;82;21016;-70
2022/12/01 11:39:39;;;;;;;6.40;3.30;;;;;;;2.70;100.00;100789.69;1660496;84;21031;-67
2022/12/01 11:42:23;;;;;;;4.57;2.50;;;;;;;3.01;100.00;100791.14;1663569;84;21011;-67
2022/12/01 11:45:08;;;;;;;8.70;4.03;;;;;;;3.50;100.00;100790.93;1666228;84;21047;-68
2022/12/01 11:47:36;;;;;;;8.70;3.43;;;;;;;3.83;100.00;100809.10;1720362;81;22204;-69
2022/12/01 11:50:08;;;;;;;6.83;3.23;;;;;;;4.06;100.00;100821.33;1684984;82;21079;-69
2022/12/01 11:52:46;;;;;;;10.15;4.10;;;;;;;4.54;100.00;100819.57;1706563;82;21050;-70
2022/12/01 11:55:24;;;;;;;9.13;3.50;;;;;;;5.02;100.00;100833.44;1692041;82;21497;-68
2022/12/01 11:57:55;;;;;;;9.53;3.00;;;;;;;5.42;100.00;100850.98;1709727;82;21477;-70
2022/12/01 12:00:30;;;;;;;8.40;3.30;;;;;;;5.51;100.00;100885.18;1697254;82;21044;-71
2022/12/01 12:03:14;;;;;;;7.63;2.43;;;;;;;5.46;100.00;100908.81;1682942;83;21042;-68
2022/12/01 12:06:11;;;;;;;7.80;3.20;;;;;;;5.38;100.00;100921.94;1689657;83;21509;-68
2022/12/01 12:08:59;;;;;;;6.47;2.20;;;;;;;5.48;100.00;100924.30;1690871;83;21518;-69
2022/12/01 12:12:04;;;;;;;3.37;2.20;;;;;;;5.50;100.00;100951.37;1699480;83;21059;-70
2022/12/01 12:15:13;;;;;;;7.03;2.20;;;;;;;5.38;100.00;100958.15;1693512;84;21027;-69
2022/12/01 12:18:21;;;;;;;5.03;2.20;;;;;;;5.28;100.00;100968.73;1703298;80;21040;-70
2022/12/01 12:21:18;;;;;;;7.07;2.60;;;;;;;5.17;100.00;100980.25;1733851;80;21060;-70
2022/12/01 12:24:02;;;;;;;11.70;3.20;;;;;;;4.95;100.00;100991.17;1711548;82;21053;-68
2022/12/01 12:26:34;;;;;;;12.60;3.47;;;;;;;4.72;100.00;100986.63;1727929;82;21071;-69
2022/12/01 12:29:46;;;;;;;9.60;3.17;;;;;;;4.55;100.00;100987.36;1737923;82;21032;-69
2022/12/01 12:32:34;;;;;;;4.40;2.30;;;;;;;4.39;100.00;100990.73;1730898;80;21041;-71
2022/12/01 12:35:21;;;;;;;14.30;2.70;;;;;;;4.16;100.00;100995.89;1725186;82;21012;-69
2022/12/01 12:38:35;;;;;;;7.30;2.70;;;;;;;3.95;100.00;100995.55;1753201;80;21033;-69
2022/12/01 12:41:08;;;;;;;13.83;6.58;;;;;;;3.76;100.00;100988.40;1751552;80;21060;-70
2022/12/01 12:43:51;;;;;;;;;;;;;;;3.59;100.00;100989.52;1760309;80;21514;-68
2022/12/01 12:46:29;;;;;;;6.07;2.93;;;;;;;3.47;100.00;100979.19;1675442;83;20150;-68
2022/12/01 12:49:20;;;;;;;5.73;2.80;;;;;;;3.30;100.00;100978.11;1651296;86;21078;-68
2022/12/01 12:52:04;;;;;;;7.13;2.70;;;;;;;3.15;100.00;100984.84;1707530;81;21638;-69
2022/12/01 12:54:39;;;;;;;6.40;2.90;;;;;;;3.01;100.00;100979.51;1664396;84;21042;-70
2022/12/01 12:57:24;;;;;;;6.23;2.50;;;;;;;2.90;100.00;100980.20;1666462;84;21066;-71
2022/12/01 13:00:09;;;;;;;4.93;2.60;;;;;;;2.82;100.00;100986.53;1711234;82;21046;-68
2022/12/01 13:02:56;;;;;;;5.83;2.50;;;;;;;2.73;100.00;100987.98;1703231;82;21601;-67
2022/12/01 13:05:53;;;;;;;7.10;2.40;;;;;;;2.63;100.00;100994.84;1695045;82;21010;-68
2022/12/01 13:08:34;;;;;;;12.40;3.40;;;;;;;2.51;100.00;101003.14;1710697;83;21054;-68
2022/12/01 13:11:25;;;;;;;7.93;2.77;;;;;;;2.43;100.00;101002.78;1694669;83;21043;-68
2022/12/01 13:14:01;;;;;;;7.57;2.80;;;;;;;2.36;100.00;100994.77;1690185;83;21548;-67
